createdAt,value
2017-07-05T00:02:17.928Z,83.60
2017-07-05T00:04:46.272Z,83.50
2017-07-05T00:07:15.327Z,83.00
2017-07-05T00:09:43.631Z,83.30
2017-07-05T00:12:12.001Z,83.30
2017-07-05T00:14:41.437Z,83.30
2017-07-05T00:17:09.733Z,83.10
2017-07-05T00:19:38.230Z,82.80
2017-07-05T00:22:08.054Z,82.10
2017-07-05T00:24:36.353Z,82.30
2017-07-05T00:29:34.299Z,82.70
2017-07-05T00:32:02.600Z,83.00
2017-07-05T00:37:01.197Z,83.60
2017-07-05T00:39:29.507Z,83.60
2017-07-05T00:44:28.867Z,83.80
2017-07-05T00:46:57.167Z,83.80
2017-07-05T00:49:25.543Z,84.70
2017-07-05T00:51:55.362Z,84.40
2017-07-05T00:54:23.655Z,85.10
2017-07-05T00:56:53.584Z,86.10
2017-07-05T00:59:21.875Z,87.00
2017-07-05T01:01:51.672Z,87.20
2017-07-05T01:06:49.939Z,88.20
2017-07-05T01:09:18.991Z,88.20
2017-07-05T01:11:47.333Z,88.00
2017-07-05T01:14:16.754Z,88.00
2017-07-05T01:19:15.019Z,86.80
2017-07-05T01:24:13.591Z,87.40
2017-07-05T01:26:43.201Z,86.90
2017-07-05T01:29:11.902Z,87.50
2017-07-05T01:31:40.205Z,87.50
2017-07-05T01:34:09.633Z,87.40
2017-07-05T01:36:37.952Z,87.80
2017-07-05T01:39:07.379Z,88.10
2017-07-05T01:41:35.982Z,88.20
2017-07-05T01:44:04.295Z,88.10
2017-07-05T01:46:32.591Z,88.60
2017-07-05T01:49:00.961Z,88.10
2017-07-05T01:51:30.016Z,88.30
2017-07-05T01:53:58.700Z,88.40
2017-07-05T01:56:27.124Z,89.00
2017-07-05T01:58:55.417Z,89.30
2017-07-05T02:01:25.214Z,89.10
2017-07-05T02:03:53.543Z,88.20
2017-07-05T02:06:22.590Z,88.40
2017-07-05T02:08:50.884Z,88.70
2017-07-05T02:11:20.151Z,89.50
2017-07-05T02:13:48.832Z,88.70
2017-07-05T02:16:17.120Z,89.10
2017-07-05T02:18:45.467Z,89.40
2017-07-05T02:21:15.263Z,90.00
2017-07-05T02:23:43.947Z,89.90
2017-07-05T02:26:12.287Z,90.10
2017-07-05T02:28:40.593Z,89.70
2017-07-05T02:31:08.903Z,89.00
2017-07-05T02:33:38.155Z,89.60
2017-07-05T02:36:06.743Z,89.60
2017-07-05T02:38:36.554Z,89.90
2017-07-05T02:41:05.215Z,89.80
2017-07-05T02:43:35.039Z,90.00
2017-07-05T02:46:04.460Z,90.10
2017-07-05T02:48:33.559Z,90.00
2017-07-05T02:51:01.846Z,90.20
2017-07-05T02:56:01.179Z,90.40
2017-07-05T02:58:29.463Z,90.40
2017-07-05T03:00:59.259Z,90.30
2017-07-05T03:03:27.663Z,90.50
2017-07-05T03:05:55.956Z,90.50
2017-07-05T03:08:25.391Z,90.70
2017-07-05T03:10:53.731Z,90.90
2017-07-05T03:13:22.020Z,90.80
2017-07-05T03:15:50.699Z,90.60
2017-07-05T03:18:19.061Z,90.80
2017-07-05T03:20:48.483Z,90.60
2017-07-05T03:25:47.111Z,90.70
2017-07-05T03:28:16.166Z,90.90
2017-07-05T03:30:44.455Z,90.80
2017-07-05T03:33:13.163Z,90.70
2017-07-05T03:35:41.862Z,90.80
2017-07-05T03:38:10.931Z,90.90
2017-07-05T03:40:39.279Z,90.90
2017-07-05T03:45:37.133Z,90.80
2017-07-05T03:50:35.751Z,90.60
2017-07-05T03:53:05.740Z,90.70
2017-07-05T03:55:34.228Z,90.70
2017-07-05T03:58:02.517Z,90.80
2017-07-05T04:00:30.807Z,90.90
2017-07-05T04:05:30.479Z,90.90
2017-07-05T04:07:59.903Z,91.00
2017-07-05T04:10:28.251Z,91.00
2017-07-05T04:15:26.471Z,91.20
2017-07-05T04:17:55.984Z,91.30
2017-07-05T04:20:24.685Z,91.40
2017-07-05T04:22:52.970Z,91.40
2017-07-05T04:25:22.812Z,91.30
2017-07-05T04:27:51.864Z,91.80
2017-07-05T04:30:20.924Z,91.50
2017-07-05T04:32:49.284Z,91.50
2017-07-05T04:35:17.575Z,91.60
2017-07-05T04:37:45.859Z,91.60
2017-07-05T04:42:44.120Z,91.70
2017-07-05T04:47:43.103Z,91.90
2017-07-05T04:50:12.904Z,92.00
2017-07-05T04:52:41.207Z,92.10
2017-07-05T04:55:10.336Z,92.20
2017-07-05T04:57:38.648Z,92.20
2017-07-05T05:00:06.955Z,92.10
2017-07-05T05:02:37.565Z,91.90
2017-07-05T05:05:07.332Z,91.90
2017-07-05T05:07:35.646Z,91.70
2017-07-05T05:10:04.744Z,91.70
2017-07-05T05:12:33.034Z,91.60
2017-07-05T05:15:01.326Z,91.50
2017-07-05T05:17:29.651Z,91.50
2017-07-05T05:19:57.947Z,91.30
2017-07-05T05:22:26.247Z,91.10
2017-07-05T05:24:54.599Z,90.90
2017-07-05T05:27:24.387Z,90.80
2017-07-05T05:32:23.170Z,90.50
2017-07-05T05:34:51.856Z,90.10
2017-07-05T05:37:20.139Z,90.20
2017-07-05T05:39:49.598Z,90.00
2017-07-05T05:42:18.279Z,89.40
2017-07-05T05:44:46.572Z,89.00
2017-07-05T05:47:14.928Z,88.70
2017-07-05T05:49:44.728Z,88.30
2017-07-05T05:52:13.020Z,88.00
2017-07-05T05:54:42.049Z,88.00
2017-07-05T05:57:11.120Z,88.10
2017-07-05T05:59:39.436Z,88.00
2017-07-05T06:02:08.171Z,87.80
2017-07-05T06:04:36.480Z,88.10
2017-07-05T06:07:04.771Z,88.00
2017-07-05T06:09:35.329Z,87.50
2017-07-05T06:12:04.019Z,86.80
2017-07-05T06:14:32.710Z,86.50
2017-07-05T06:17:01.041Z,85.80
2017-07-05T06:19:29.327Z,85.50
2017-07-05T06:21:58.015Z,84.30
2017-07-05T06:26:56.281Z,83.30
2017-07-05T06:29:25.343Z,83.70
2017-07-05T06:31:54.459Z,83.20
2017-07-05T06:34:22.739Z,80.80
2017-07-05T06:36:51.031Z,80.10
2017-07-05T06:39:19.380Z,79.50
2017-07-05T06:41:47.675Z,78.10
2017-07-05T06:44:17.475Z,76.70
2017-07-05T06:46:46.604Z,76.40
2017-07-05T06:49:16.041Z,74.20
2017-07-05T06:54:15.525Z,71.20
2017-07-05T06:56:44.583Z,69.40
2017-07-05T06:59:12.899Z,67.20
2017-07-05T07:01:42.255Z,67.80
2017-07-05T07:07:12.393Z,65.40
2017-07-05T07:09:40.699Z,63.10
2017-07-05T07:12:10.532Z,62.70
2017-07-05T07:14:38.900Z,60.50
2017-07-05T07:17:08.722Z,61.00
2017-07-05T07:19:37.037Z,60.20
2017-07-05T07:22:05.382Z,58.60
2017-07-05T07:24:33.671Z,60.20
2017-07-05T07:27:03.464Z,58.70
2017-07-05T07:29:31.819Z,57.70
2017-07-05T07:32:00.127Z,58.90
2017-07-05T07:34:28.412Z,58.20
2017-07-05T07:36:57.528Z,56.20
2017-07-05T07:39:26.579Z,55.00
2017-07-05T07:41:55.635Z,54.40
2017-07-05T07:44:24.000Z,54.40
2017-07-05T07:46:53.795Z,54.50
2017-07-05T07:49:22.078Z,53.90
2017-07-05T07:51:50.796Z,53.00
2017-07-05T07:54:19.083Z,52.60
2017-07-05T07:56:48.140Z,52.30
2017-07-05T07:59:17.247Z,50.60
2017-07-05T08:01:45.527Z,51.30
2017-07-05T08:04:14.956Z,52.50
2017-07-05T08:06:43.315Z,52.40
2017-07-05T08:09:12.029Z,49.60
2017-07-05T08:11:41.466Z,49.90
2017-07-05T08:14:09.866Z,47.00
2017-07-05T08:16:39.303Z,48.00
2017-07-05T08:19:07.603Z,46.90
2017-07-05T08:21:36.364Z,47.00
2017-07-05T08:24:04.648Z,46.40
2017-07-05T08:26:33.694Z,45.70
2017-07-05T08:29:02.046Z,47.30
2017-07-05T08:31:30.728Z,46.00
2017-07-05T08:36:30.080Z,45.40
2017-07-05T08:38:58.358Z,44.20
2017-07-05T08:41:26.664Z,43.20
2017-07-05T08:46:29.656Z,43.60
2017-07-05T08:48:59.119Z,44.20
2017-07-05T08:53:57.751Z,41.90
2017-07-05T08:56:26.113Z,42.00
2017-07-05T08:58:55.181Z,42.30
2017-07-05T09:01:24.233Z,42.70
2017-07-05T09:03:52.588Z,42.30
2017-07-05T09:06:21.640Z,41.50
2017-07-05T09:08:49.923Z,41.30
2017-07-05T09:16:18.015Z,41.50
2017-07-05T09:18:46.351Z,40.60
2017-07-05T09:21:15.027Z,40.10
2017-07-05T09:23:44.439Z,40.70
2017-07-05T09:26:12.807Z,40.40
2017-07-05T09:28:41.105Z,41.50
2017-07-05T09:31:09.403Z,40.70
2017-07-05T09:36:07.588Z,39.90
2017-07-05T09:38:35.882Z,40.30
2017-07-05T09:41:04.215Z,39.00
2017-07-05T09:43:33.259Z,41.30
2017-07-05T09:46:01.540Z,39.50
2017-07-05T09:48:30.631Z,39.00
2017-07-05T09:50:59.680Z,39.60
2017-07-05T09:53:29.463Z,40.90
2017-07-05T09:55:58.959Z,40.30
2017-07-05T09:58:27.647Z,40.10
2017-07-05T10:00:55.942Z,40.30
2017-07-05T10:03:24.299Z,41.00
2017-07-05T10:05:52.587Z,41.90
2017-07-05T10:08:20.869Z,40.50
2017-07-05T10:10:49.182Z,40.60
2017-07-05T10:13:17.468Z,41.10
2017-07-05T10:15:45.739Z,42.00
2017-07-05T10:18:15.575Z,40.10
2017-07-05T10:20:43.863Z,40.60
2017-07-05T10:23:13.647Z,40.60
2017-07-05T10:25:45.155Z,42.20
2017-07-05T10:28:14.204Z,41.80
2017-07-05T10:30:43.252Z,42.20
2017-07-05T10:33:12.076Z,41.70
2017-07-05T10:35:41.516Z,42.00
2017-07-05T10:38:09.810Z,41.90
2017-07-05T10:40:38.154Z,41.80
2017-07-05T10:43:06.447Z,42.00
2017-07-05T10:45:34.724Z,41.10
2017-07-05T10:48:04.187Z,41.90
2017-07-05T10:50:32.464Z,44.00
2017-07-05T10:53:00.743Z,42.50
2017-07-05T10:57:59.520Z,43.30
2017-07-05T11:02:57.748Z,43.80
2017-07-05T11:10:25.538Z,40.00
2017-07-05T11:12:55.340Z,40.70
2017-07-05T11:15:23.607Z,41.50
2017-07-05T11:17:51.932Z,41.80
2017-07-05T11:20:21.343Z,40.20
2017-07-05T11:25:26.080Z,41.20
2017-07-05T11:27:54.373Z,42.50
2017-07-05T11:30:22.651Z,41.80
2017-07-05T11:32:50.993Z,43.00
2017-07-05T11:37:48.770Z,39.10
2017-07-05T11:40:17.124Z,39.50
2017-07-05T11:42:45.400Z,41.00
2017-07-05T11:45:14.820Z,43.10
2017-07-05T11:47:43.916Z,41.40
2017-07-05T11:50:12.967Z,40.70
2017-07-05T11:52:42.777Z,40.50
2017-07-05T11:55:11.510Z,39.80
2017-07-05T11:57:41.324Z,39.20
2017-07-05T12:00:11.154Z,39.60
2017-07-05T12:02:39.509Z,40.30
2017-07-05T12:05:09.319Z,41.10
2017-07-05T12:07:37.614Z,41.70
2017-07-05T12:10:05.978Z,41.30
2017-07-05T12:12:34.258Z,42.00
2017-07-05T12:17:32.499Z,40.40
2017-07-05T12:20:00.776Z,41.30
2017-07-05T12:22:29.063Z,40.10
2017-07-05T12:24:58.911Z,40.40
2017-07-05T12:27:27.600Z,39.00
2017-07-05T12:29:55.904Z,39.20
2017-07-05T12:32:25.000Z,39.60
2017-07-05T12:34:54.792Z,40.40
2017-07-05T12:39:53.032Z,37.50
2017-07-05T12:42:21.307Z,37.80
2017-07-05T12:44:49.587Z,38.30
2017-07-05T12:47:19.420Z,37.40
2017-07-05T12:49:47.691Z,36.70
2017-07-05T12:54:45.939Z,36.40
2017-07-05T12:57:14.213Z,37.20
2017-07-05T12:59:42.500Z,37.20
2017-07-05T13:02:11.165Z,36.30
2017-07-05T13:04:40.963Z,35.40
2017-07-05T13:09:40.333Z,35.30
2017-07-05T13:17:08.884Z,35.00
2017-07-05T13:19:37.182Z,35.50
2017-07-05T13:22:06.981Z,35.90
2017-07-05T13:24:35.303Z,36.30
2017-07-05T13:27:03.579Z,35.90
2017-07-05T13:29:31.847Z,35.70
2017-07-05T13:32:01.339Z,37.60
2017-07-05T13:34:30.379Z,37.80
2017-07-05T13:36:59.795Z,36.30
2017-07-05T13:39:28.139Z,36.60
2017-07-05T13:41:56.444Z,38.20
2017-07-05T13:46:55.110Z,39.10
2017-07-05T13:49:24.894Z,38.40
2017-07-05T13:51:53.177Z,38.00
2017-07-05T13:54:22.287Z,40.00
2017-07-05T13:56:50.567Z,40.20
2017-07-05T13:59:18.842Z,38.60
2017-07-05T14:01:47.167Z,38.80
2017-07-05T14:04:15.448Z,38.40
2017-07-05T14:06:44.859Z,40.40
2017-07-05T14:09:13.563Z,38.90
2017-07-05T14:11:41.855Z,39.10
2017-07-05T14:14:10.148Z,39.30
2017-07-05T14:16:39.649Z,40.70
2017-07-05T14:21:38.227Z,40.00
2017-07-05T14:24:06.561Z,40.80
2017-07-05T14:26:34.839Z,40.80
2017-07-05T14:31:35.079Z,40.60
2017-07-05T14:36:34.139Z,40.40
2017-07-05T14:39:02.463Z,40.50
2017-07-05T14:41:30.745Z,40.00
2017-07-05T14:43:59.024Z,43.00
2017-07-05T14:46:27.624Z,41.30
2017-07-05T14:48:56.691Z,41.80
2017-07-05T14:51:25.749Z,41.80
2017-07-05T14:53:54.084Z,40.90
2017-07-05T14:56:23.132Z,41.10
2017-07-05T14:58:51.417Z,41.20
2017-07-05T15:01:19.747Z,41.30
2017-07-05T15:03:48.027Z,41.00
2017-07-05T15:06:16.312Z,41.80
2017-07-05T15:08:44.891Z,40.80
2017-07-05T15:11:14.679Z,41.10
2017-07-05T15:13:42.960Z,42.30
2017-07-05T15:16:12.069Z,41.70
2017-07-05T15:18:40.371Z,41.50
2017-07-05T15:21:08.671Z,42.10
2017-07-05T15:23:37.037Z,42.20
2017-07-05T15:26:05.306Z,43.00
2017-07-05T15:28:34.475Z,43.40
2017-07-05T15:31:02.798Z,43.50
2017-07-05T15:36:00.983Z,42.80
2017-07-05T15:38:29.303Z,44.70
2017-07-05T15:40:57.593Z,42.90
2017-07-05T15:43:25.880Z,43.80
2017-07-05T15:45:54.214Z,44.30
2017-07-05T15:48:22.488Z,42.90
2017-07-05T15:50:52.270Z,43.60
2017-07-05T15:53:20.603Z,43.70
2017-07-05T15:55:49.653Z,43.00
2017-07-05T16:00:48.294Z,43.70
2017-07-05T16:03:16.580Z,44.20
2017-07-05T16:05:46.379Z,44.70
2017-07-05T16:08:15.086Z,43.40
2017-07-05T16:13:19.120Z,44.40
2017-07-05T16:15:47.395Z,44.50
2017-07-05T16:18:15.687Z,44.70
2017-07-05T16:20:45.456Z,43.80
2017-07-05T16:23:13.756Z,45.10
2017-07-05T16:28:12.025Z,44.30
2017-07-05T16:33:10.231Z,45.30
2017-07-05T16:35:39.727Z,45.80
2017-07-05T16:43:08.074Z,45.90
2017-07-05T16:45:36.379Z,46.40
2017-07-05T16:48:06.217Z,46.60
2017-07-05T16:53:08.317Z,47.20
2017-07-05T16:55:37.372Z,48.10
2017-07-05T17:00:35.997Z,46.70
2017-07-05T17:03:05.036Z,47.20
2017-07-05T17:05:33.386Z,47.70
2017-07-05T17:10:31.944Z,47.90
2017-07-05T17:13:00.291Z,48.00
2017-07-05T17:15:28.576Z,48.30
2017-07-05T17:17:57.626Z,47.50
2017-07-05T17:20:25.953Z,47.00
2017-07-05T17:22:54.228Z,47.30
2017-07-05T17:25:24.020Z,47.90
2017-07-05T17:27:52.344Z,48.10
2017-07-05T17:30:20.615Z,47.00
2017-07-05T17:32:48.899Z,47.60
2017-07-05T17:35:17.575Z,48.10
2017-07-05T17:37:46.267Z,48.30
2017-07-05T17:40:14.563Z,48.50
2017-07-05T17:42:43.292Z,47.80
2017-07-05T17:45:11.608Z,47.90
2017-07-05T17:47:39.910Z,48.50
2017-07-05T17:50:08.293Z,48.50
2017-07-05T17:52:38.103Z,48.60
2017-07-05T17:55:07.218Z,48.90
2017-07-05T17:57:36.328Z,49.30
2017-07-05T18:00:05.372Z,49.20
2017-07-05T18:02:33.650Z,49.10
2017-07-05T18:05:02.119Z,49.00
2017-07-05T18:07:31.899Z,49.40
2017-07-05T18:10:00.174Z,49.60
2017-07-05T18:12:28.499Z,49.40
2017-07-05T18:14:56.779Z,50.00
2017-07-05T18:17:25.066Z,50.10
2017-07-05T18:19:54.539Z,50.00
2017-07-05T18:22:22.817Z,50.20
2017-07-05T18:24:51.095Z,50.50
2017-07-05T18:29:49.316Z,51.30
2017-07-05T18:32:17.597Z,51.40
2017-07-05T18:34:45.969Z,51.70
2017-07-05T18:39:44.171Z,51.50
2017-07-05T18:42:12.520Z,52.20
2017-07-05T18:44:41.590Z,52.40
2017-07-05T18:47:09.899Z,52.80
2017-07-05T18:49:38.255Z,53.10
2017-07-05T18:52:08.047Z,53.00
2017-07-05T18:57:05.923Z,53.60
2017-07-05T18:59:34.202Z,54.10
2017-07-05T19:02:04.447Z,53.50
2017-07-05T19:04:33.086Z,54.20
2017-07-05T19:07:02.503Z,54.40
2017-07-05T19:09:31.232Z,54.80
2017-07-05T19:11:59.552Z,54.30
2017-07-05T19:21:57.163Z,55.20
2017-07-05T19:26:55.419Z,55.20
2017-07-05T19:31:53.628Z,56.00
2017-07-05T19:34:21.963Z,56.10
2017-07-05T19:36:50.251Z,56.40
2017-07-05T19:39:20.043Z,56.90
2017-07-05T19:41:48.395Z,57.30
2017-07-05T19:44:16.676Z,57.80
2017-07-05T19:46:44.980Z,58.00
2017-07-05T19:49:14.815Z,58.50
2017-07-05T19:51:43.495Z,58.90
2017-07-05T19:54:13.307Z,59.70
2017-07-05T19:56:41.948Z,59.70
2017-07-05T19:59:11.751Z,59.60
2017-07-05T20:01:40.070Z,60.20
2017-07-05T20:06:39.105Z,62.50
2017-07-05T20:09:07.414Z,61.90
2017-07-05T20:11:36.110Z,62.50
2017-07-05T20:14:05.536Z,63.00
2017-07-05T20:19:03.791Z,63.50
2017-07-05T20:21:32.097Z,64.10
2017-07-05T20:24:00.397Z,64.80
2017-07-05T20:26:28.999Z,65.20
2017-07-05T20:28:58.427Z,65.70
2017-07-05T20:33:57.051Z,65.60
2017-07-05T20:36:25.339Z,65.50
2017-07-05T20:38:53.627Z,65.30
2017-07-05T20:41:21.977Z,65.50
2017-07-05T20:43:50.999Z,65.90
2017-07-05T20:46:20.089Z,66.40
2017-07-05T20:48:49.221Z,66.60
2017-07-05T20:51:17.550Z,66.70
2017-07-05T20:53:47.386Z,67.10
2017-07-05T20:56:15.778Z,67.90
2017-07-05T21:01:14.010Z,68.70
2017-07-05T21:03:44.262Z,69.10
2017-07-05T21:06:12.610Z,69.20
2017-07-05T21:08:40.953Z,70.00
2017-07-05T21:11:10.490Z,70.50
2017-07-05T21:16:09.203Z,70.10
2017-07-05T21:18:39.101Z,70.90
2017-07-05T21:23:37.770Z,70.90
2017-07-05T21:26:07.188Z,71.20
2017-07-05T21:28:36.307Z,71.40
2017-07-05T21:31:05.043Z,71.80
2017-07-05T21:33:33.730Z,72.00
2017-07-05T21:36:03.193Z,72.80
2017-07-05T21:38:31.520Z,73.10
2017-07-05T21:41:00.257Z,72.70
2017-07-05T21:43:29.342Z,73.40
2017-07-05T21:45:57.678Z,73.60
2017-07-05T21:48:26.206Z,73.40
2017-07-05T21:50:56.089Z,73.60
2017-07-05T21:53:24.429Z,74.10
2017-07-05T21:55:53.094Z,74.10
2017-07-05T21:58:22.930Z,74.30
2017-07-05T22:00:51.285Z,74.10
2017-07-05T22:03:20.432Z,74.30
2017-07-05T22:08:18.703Z,74.80
2017-07-05T22:10:47.073Z,74.90
2017-07-05T22:13:16.165Z,75.60
2017-07-05T22:15:44.890Z,75.50
2017-07-05T22:18:13.267Z,75.30
2017-07-05T22:20:41.616Z,75.90
2017-07-05T22:23:09.971Z,76.20
2017-07-05T22:25:39.517Z,76.30
2017-07-05T22:28:07.869Z,76.00
2017-07-05T22:30:36.215Z,76.90
2017-07-05T22:35:34.231Z,77.10
2017-07-05T22:38:03.656Z,77.60
2017-07-05T22:40:32.828Z,77.60
2017-07-05T22:43:01.162Z,77.20
2017-07-05T22:47:59.490Z,77.40
2017-07-05T22:50:28.586Z,77.80
2017-07-05T22:52:57.681Z,77.60
2017-07-05T22:55:26.837Z,78.10
2017-07-05T22:57:55.177Z,78.10
2017-07-05T23:00:23.517Z,78.40
2017-07-05T23:02:53.341Z,78.00
2017-07-05T23:05:21.672Z,78.40
2017-07-05T23:07:51.142Z,78.40
2017-07-05T23:10:20.298Z,78.60
2017-07-05T23:12:48.630Z,78.90
2017-07-05T23:15:17.721Z,78.60
2017-07-05T23:17:46.126Z,78.40
2017-07-05T23:22:44.730Z,79.40
2017-07-05T23:25:13.067Z,78.70
2017-07-05T23:27:42.123Z,79.60
2017-07-05T23:30:11.187Z,79.60
2017-07-05T23:32:39.824Z,79.40
2017-07-05T23:35:08.541Z,80.30
2017-07-05T23:40:06.403Z,80.40
2017-07-05T23:42:34.700Z,79.90
2017-07-05T23:45:02.990Z,80.60
2017-07-05T23:47:31.353Z,80.20
2017-07-05T23:49:59.649Z,80.50
2017-07-05T23:52:27.935Z,80.80
2017-07-05T23:54:57.435Z,80.60
2017-07-05T23:57:25.743Z,81.30
2017-07-05T23:59:54.823Z,80.60
